sensor_id;sensor_type;location;lat;lon;timestamp;temperature;humidity
72604;DHT22;60645;56.968;24.196;2023-03-24T00:00:31;8.50;94.50
72604;DHT22;60645;56.968;24.196;2023-03-24T00:02:58;8.50;94.60
72604;DHT22;60645;56.968;24.196;2023-03-24T00:05:28;8.60;94.80
72604;DHT22;60645;56.968;24.196;2023-03-24T00:07:56;8.50;94.90
72604;DHT22;60645;56.968;24.196;2023-03-24T00:10:28;8.60;94.40
72604;DHT22;60645;56.968;24.196;2023-03-24T00:12:56;8.40;94.30
72604;DHT22;60645;56.968;24.196;2023-03-24T00:15:24;8.50;94.20
72604;DHT22;60645;56.968;24.196;2023-03-24T00:17:50;8.40;94.10
72604;DHT22;60645;56.968;24.196;2023-03-24T00:20:18;8.40;93.70
72604;DHT22;60645;56.968;24.196;2023-03-24T00:22:47;8.40;93.60
72604;DHT22;60645;56.968;24.196;2023-03-24T00:25:15;8.40;93.50
72604;DHT22;60645;56.968;24.196;2023-03-24T00:27:42;8.40;93.40
72604;DHT22;60645;56.968;24.196;2023-03-24T00:30:10;8.40;93.30
72604;DHT22;60645;56.968;24.196;2023-03-24T00:32:38;8.50;93.00
72604;DHT22;60645;56.968;24.196;2023-03-24T00:35:07;8.40;92.90
72604;DHT22;60645;56.968;24.196;2023-03-24T00:37:38;8.40;92.80
72604;DHT22;60645;56.968;24.196;2023-03-24T00:40:11;8.40;92.70
72604;DHT22;60645;56.968;24.196;2023-03-24T00:42:39;8.30;92.70
72604;DHT22;60645;56.968;24.196;2023-03-24T00:45:07;8.30;92.70
72604;DHT22;60645;56.968;24.196;2023-03-24T00:47:34;8.30;91.90
72604;DHT22;60645;56.968;24.196;2023-03-24T00:50:05;8.30;92.20
72604;DHT22;60645;56.968;24.196;2023-03-24T00:52:32;8.20;92.00
72604;DHT22;60645;56.968;24.196;2023-03-24T00:55:00;8.20;91.70
72604;DHT22;60645;56.968;24.196;2023-03-24T00:57:28;8.20;91.70
72604;DHT22;60645;56.968;24.196;2023-03-24T00:59:55;8.10;91.60
72604;DHT22;60645;56.968;24.196;2023-03-24T01:02:24;8.20;91.10
72604;DHT22;60645;56.968;24.196;2023-03-24T01:04:52;8.30;90.90
72604;DHT22;60645;56.968;24.196;2023-03-24T01:07:20;8.20;91.50
72604;DHT22;60645;56.968;24.196;2023-03-24T01:09:47;8.30;90.90
72604;DHT22;60645;56.968;24.196;2023-03-24T01:12:24;8.20;90.60
72604;DHT22;60645;56.968;24.196;2023-03-24T01:14:51;8.20;90.50
72604;DHT22;60645;56.968;24.196;2023-03-24T01:17:18;8.10;90.80
72604;DHT22;60645;56.968;24.196;2023-03-24T01:19:48;8.10;90.10
72604;DHT22;60645;56.968;24.196;2023-03-24T01:22:14;8.10;90.60
72604;DHT22;60645;56.968;24.196;2023-03-24T01:24:42;8.00;90.70
72604;DHT22;60645;56.968;24.196;2023-03-24T01:27:09;8.10;90.60
72604;DHT22;60645;56.968;24.196;2023-03-24T01:29:36;8.00;90.60
72604;DHT22;60645;56.968;24.196;2023-03-24T01:32:03;8.10;90.60
72604;DHT22;60645;56.968;24.196;2023-03-24T01:34:30;8.10;90.40
72604;DHT22;60645;56.968;24.196;2023-03-24T01:36:58;8.10;90.40
72604;DHT22;60645;56.968;24.196;2023-03-24T01:39:24;8.10;90.40
72604;DHT22;60645;56.968;24.196;2023-03-24T01:41:51;8.00;90.00
72604;DHT22;60645;56.968;24.196;2023-03-24T01:44:22;7.90;90.50
72604;DHT22;60645;56.968;24.196;2023-03-24T01:46:49;7.70;90.70
72604;DHT22;60645;56.968;24.196;2023-03-24T01:49:16;7.60;91.30
72604;DHT22;60645;56.968;24.196;2023-03-24T01:51:44;7.70;91.30
72604;DHT22;60645;56.968;24.196;2023-03-24T01:54:13;7.40;91.10
72604;DHT22;60645;56.968;24.196;2023-03-24T01:56:44;7.50;91.50
72604;DHT22;60645;56.968;24.196;2023-03-24T01:59:14;7.40;91.60
72604;DHT22;60645;56.968;24.196;2023-03-24T02:01:42;7.30;91.80
72604;DHT22;60645;56.968;24.196;2023-03-24T02:04:10;7.20;92.20
72604;DHT22;60645;56.968;24.196;2023-03-24T02:06:38;7.20;91.90
72604;DHT22;60645;56.968;24.196;2023-03-24T02:09:07;7.20;92.40
72604;DHT22;60645;56.968;24.196;2023-03-24T02:11:35;6.90;92.50
72604;DHT22;60645;56.968;24.196;2023-03-24T02:14:03;6.90;92.60
72604;DHT22;60645;56.968;24.196;2023-03-24T02:16:37;7.00;93.10
72604;DHT22;60645;56.968;24.196;2023-03-24T02:29:27;6.80;92.90
72604;DHT22;60645;56.968;24.196;2023-03-24T02:45:11;6.90;92.90
72604;DHT22;60645;56.968;24.196;2023-03-24T02:55:26;6.70;93.40
72604;DHT22;60645;56.968;24.196;2023-03-24T02:57:56;6.70;93.50
72604;DHT22;60645;56.968;24.196;2023-03-24T03:00:27;6.80;93.80
72604;DHT22;60645;56.968;24.196;2023-03-24T03:02:58;6.70;94.10
72604;DHT22;60645;56.968;24.196;2023-03-24T03:05:29;6.90;93.70
72604;DHT22;60645;56.968;24.196;2023-03-24T03:07:58;6.90;93.80
72604;DHT22;60645;56.968;24.196;2023-03-24T03:10:28;6.80;94.00
72604;DHT22;60645;56.968;24.196;2023-03-24T03:12:57;6.90;94.20
72604;DHT22;60645;56.968;24.196;2023-03-24T03:15:27;6.70;94.20
72604;DHT22;60645;56.968;24.196;2023-03-24T03:18:00;6.70;94.50
72604;DHT22;60645;56.968;24.196;2023-03-24T03:20:32;6.50;94.50
72604;DHT22;60645;56.968;24.196;2023-03-24T03:23:03;6.40;94.60
72604;DHT22;60645;56.968;24.196;2023-03-24T03:25:33;6.40;95.00
72604;DHT22;60645;56.968;24.196;2023-03-24T03:28:02;6.10;95.60
72604;DHT22;60645;56.968;24.196;2023-03-24T03:30:37;6.10;95.90
72604;DHT22;60645;56.968;24.196;2023-03-24T03:33:07;6.00;96.30
72604;DHT22;60645;56.968;24.196;2023-03-24T03:35:37;5.90;96.40
72604;DHT22;60645;56.968;24.196;2023-03-24T03:40:58;5.90;96.80
72604;DHT22;60645;56.968;24.196;2023-03-24T03:43:26;5.80;96.90
72604;DHT22;60645;56.968;24.196;2023-03-24T03:45:53;5.70;97.20
72604;DHT22;60645;56.968;24.196;2023-03-24T03:48:20;5.70;97.20
72604;DHT22;60645;56.968;24.196;2023-03-24T03:50:47;5.60;97.10
72604;DHT22;60645;56.968;24.196;2023-03-24T03:53:24;5.80;96.80
72604;DHT22;60645;56.968;24.196;2023-03-24T03:55:53;5.60;97.10
72604;DHT22;60645;56.968;24.196;2023-03-24T03:58:22;5.60;97.30
72604;DHT22;60645;56.968;24.196;2023-03-24T04:00:49;5.50;97.40
72604;DHT22;60645;56.968;24.196;2023-03-24T04:06:00;5.50;97.50
72604;DHT22;60645;56.968;24.196;2023-03-24T04:14:11;5.40;97.60
72604;DHT22;60645;56.968;24.196;2023-03-24T04:27:20;5.00;98.50
72604;DHT22;60645;56.968;24.196;2023-03-24T04:32:30;5.10;98.30
72604;DHT22;60645;56.968;24.196;2023-03-24T04:35:00;5.10;98.30
72604;DHT22;60645;56.968;24.196;2023-03-24T04:37:30;5.20;98.10
72604;DHT22;60645;56.968;24.196;2023-03-24T04:40:05;5.40;97.80
72604;DHT22;60645;56.968;24.196;2023-03-24T04:42:35;5.80;96.50
72604;DHT22;60645;56.968;24.196;2023-03-24T04:45:04;5.70;95.50
72604;DHT22;60645;56.968;24.196;2023-03-24T04:47:32;6.20;94.60
72604;DHT22;60645;56.968;24.196;2023-03-24T04:50:06;6.50;93.20
72604;DHT22;60645;56.968;24.196;2023-03-24T04:52:34;7.00;91.40
72604;DHT22;60645;56.968;24.196;2023-03-24T04:55:02;7.80;89.00
72604;DHT22;60645;56.968;24.196;2023-03-24T04:57:31;8.40;86.30
72604;DHT22;60645;56.968;24.196;2023-03-24T04:59:58;9.20;83.70
72604;DHT22;60645;56.968;24.196;2023-03-24T05:02:27;10.40;79.40
72604;DHT22;60645;56.968;24.196;2023-03-24T05:04:54;10.40;79.40
72604;DHT22;60645;56.968;24.196;2023-03-24T05:07:20;10.90;77.80
72604;DHT22;60645;56.968;24.196;2023-03-24T05:09:48;11.60;75.70
72604;DHT22;60645;56.968;24.196;2023-03-24T05:12:14;12.40;73.50
72604;DHT22;60645;56.968;24.196;2023-03-24T05:14:41;12.40;72.60
72604;DHT22;60645;56.968;24.196;2023-03-24T05:17:08;12.30;73.60
72604;DHT22;60645;56.968;24.196;2023-03-24T05:19:35;11.80;74.00
72604;DHT22;60645;56.968;24.196;2023-03-24T05:22:02;11.70;74.90
72604;DHT22;60645;56.968;24.196;2023-03-24T05:24:29;11.80;74.20
72604;DHT22;60645;56.968;24.196;2023-03-24T05:26:56;11.80;74.50
72604;DHT22;60645;56.968;24.196;2023-03-24T05:29:25;12.10;74.50
72604;DHT22;60645;56.968;24.196;2023-03-24T05:31:52;12.20;74.20
72604;DHT22;60645;56.968;24.196;2023-03-24T05:34:20;12.40;72.90
72604;DHT22;60645;56.968;24.196;2023-03-24T05:36:47;12.70;71.00
72604;DHT22;60645;56.968;24.196;2023-03-24T05:39:14;12.40;71.50
72604;DHT22;60645;56.968;24.196;2023-03-24T05:41:41;11.40;73.50
72604;DHT22;60645;56.968;24.196;2023-03-24T05:44:07;10.40;77.30
72604;DHT22;60645;56.968;24.196;2023-03-24T05:46:34;10.10;78.50
72604;DHT22;60645;56.968;24.196;2023-03-24T05:49:01;9.80;79.70
72604;DHT22;60645;56.968;24.196;2023-03-24T05:51:28;9.90;79.10
72604;DHT22;60645;56.968;24.196;2023-03-24T05:53:55;10.10;79.90
72604;DHT22;60645;56.968;24.196;2023-03-24T05:56:22;11.10;76.60
72604;DHT22;60645;56.968;24.196;2023-03-24T05:58:48;11.90;75.60
72604;DHT22;60645;56.968;24.196;2023-03-24T06:01:17;12.80;72.10
72604;DHT22;60645;56.968;24.196;2023-03-24T06:03:44;13.20;70.20
72604;DHT22;60645;56.968;24.196;2023-03-24T06:06:11;13.60;68.90
72604;DHT22;60645;56.968;24.196;2023-03-24T06:08:42;13.80;67.80
72604;DHT22;60645;56.968;24.196;2023-03-24T06:11:10;14.00;67.30
72604;DHT22;60645;56.968;24.196;2023-03-24T06:13:38;14.50;65.30
72604;DHT22;60645;56.968;24.196;2023-03-24T06:16:06;14.10;66.30
72604;DHT22;60645;56.968;24.196;2023-03-24T06:18:35;15.10;63.20
72604;DHT22;60645;56.968;24.196;2023-03-24T06:21:02;15.10;63.40
72604;DHT22;60645;56.968;24.196;2023-03-24T06:23:29;15.40;61.50
72604;DHT22;60645;56.968;24.196;2023-03-24T06:25:56;15.60;60.80
72604;DHT22;60645;56.968;24.196;2023-03-24T06:28:29;15.80;60.90
72604;DHT22;60645;56.968;24.196;2023-03-24T06:31:00;15.90;60.10
72604;DHT22;60645;56.968;24.196;2023-03-24T06:33:28;16.20;58.70
72604;DHT22;60645;56.968;24.196;2023-03-24T06:35:55;16.20;58.70
72604;DHT22;60645;56.968;24.196;2023-03-24T06:38:22;16.30;59.50
72604;DHT22;60645;56.968;24.196;2023-03-24T06:40:49;16.40;58.80
72604;DHT22;60645;56.968;24.196;2023-03-24T06:43:16;16.10;58.80
72604;DHT22;60645;56.968;24.196;2023-03-24T06:45:43;16.30;58.50
72604;DHT22;60645;56.968;24.196;2023-03-24T06:48:10;16.40;58.60
72604;DHT22;60645;56.968;24.196;2023-03-24T06:50:37;16.80;58.40
72604;DHT22;60645;56.968;24.196;2023-03-24T06:53:06;16.80;57.60
72604;DHT22;60645;56.968;24.196;2023-03-24T06:55:33;16.70;58.40
72604;DHT22;60645;56.968;24.196;2023-03-24T06:58:00;17.10;57.20
72604;DHT22;60645;56.968;24.196;2023-03-24T07:00:28;17.00;57.60
72604;DHT22;60645;56.968;24.196;2023-03-24T07:02:56;17.70;54.40
72604;DHT22;60645;56.968;24.196;2023-03-24T07:05:23;17.60;56.10
72604;DHT22;60645;56.968;24.196;2023-03-24T07:07:50;17.40;56.60
72604;DHT22;60645;56.968;24.196;2023-03-24T07:10:20;17.60;56.10
72604;DHT22;60645;56.968;24.196;2023-03-24T07:12:47;17.50;55.80
72604;DHT22;60645;56.968;24.196;2023-03-24T07:15:14;18.00;55.10
72604;DHT22;60645;56.968;24.196;2023-03-24T07:17:41;18.40;54.10
72604;DHT22;60645;56.968;24.196;2023-03-24T07:20:09;18.30;53.80
72604;DHT22;60645;56.968;24.196;2023-03-24T07:22:36;18.40;53.40
72604;DHT22;60645;56.968;24.196;2023-03-24T07:25:03;18.60;52.20
72604;DHT22;60645;56.968;24.196;2023-03-24T07:27:30;18.60;52.90
72604;DHT22;60645;56.968;24.196;2023-03-24T07:30:00;18.20;53.60
72604;DHT22;60645;56.968;24.196;2023-03-24T07:32:30;18.60;53.20
72604;DHT22;60645;56.968;24.196;2023-03-24T07:35:00;18.70;51.80
72604;DHT22;60645;56.968;24.196;2023-03-24T07:37:28;18.80;53.00
72604;DHT22;60645;56.968;24.196;2023-03-24T07:39:54;19.20;52.40
72604;DHT22;60645;56.968;24.196;2023-03-24T07:42:21;18.20;53.90
72604;DHT22;60645;56.968;24.196;2023-03-24T07:44:48;16.10;58.40
72604;DHT22;60645;56.968;24.196;2023-03-24T07:47:15;14.90;62.60
72604;DHT22;60645;56.968;24.196;2023-03-24T07:49:43;13.90;66.00
72604;DHT22;60645;56.968;24.196;2023-03-24T07:52:10;13.20;68.20
72604;DHT22;60645;56.968;24.196;2023-03-24T07:54:36;12.90;68.70
72604;DHT22;60645;56.968;24.196;2023-03-24T07:57:03;12.40;71.80
72604;DHT22;60645;56.968;24.196;2023-03-24T07:59:30;12.20;72.60
72604;DHT22;60645;56.968;24.196;2023-03-24T08:01:57;11.90;72.80
72604;DHT22;60645;56.968;24.196;2023-03-24T08:04:25;11.50;74.20
72604;DHT22;60645;56.968;24.196;2023-03-24T08:06:54;11.40;74.60
72604;DHT22;60645;56.968;24.196;2023-03-24T08:09:21;11.00;75.80
72604;DHT22;60645;56.968;24.196;2023-03-24T08:11:49;11.00;76.40
72604;DHT22;60645;56.968;24.196;2023-03-24T08:14:16;11.10;75.80
72604;DHT22;60645;56.968;24.196;2023-03-24T08:16:43;11.20;75.50
72604;DHT22;60645;56.968;24.196;2023-03-24T08:19:12;11.30;75.60
72604;DHT22;60645;56.968;24.196;2023-03-24T08:21:39;11.40;74.50
72604;DHT22;60645;56.968;24.196;2023-03-24T08:24:06;11.30;74.20
72604;DHT22;60645;56.968;24.196;2023-03-24T08:26:33;11.30;73.50
72604;DHT22;60645;56.968;24.196;2023-03-24T08:29:01;11.40;74.30
72604;DHT22;60645;56.968;24.196;2023-03-24T08:31:32;11.50;74.40
72604;DHT22;60645;56.968;24.196;2023-03-24T08:33:58;11.50;73.20
72604;DHT22;60645;56.968;24.196;2023-03-24T08:36:25;12.20;72.00
72604;DHT22;60645;56.968;24.196;2023-03-24T08:38:53;12.40;71.30
72604;DHT22;60645;56.968;24.196;2023-03-24T08:41:21;12.30;72.00
72604;DHT22;60645;56.968;24.196;2023-03-24T08:44:03;11.90;72.20
72604;DHT22;60645;56.968;24.196;2023-03-24T08:46:33;12.00;71.90
72604;DHT22;60645;56.968;24.196;2023-03-24T08:49:00;11.80;71.80
72604;DHT22;60645;56.968;24.196;2023-03-24T08:51:27;12.10;72.20
72604;DHT22;60645;56.968;24.196;2023-03-24T08:53:54;13.80;65.80
72604;DHT22;60645;56.968;24.196;2023-03-24T08:56:20;15.30;62.20
72604;DHT22;60645;56.968;24.196;2023-03-24T08:58:47;16.50;58.20
72604;DHT22;60645;56.968;24.196;2023-03-24T09:01:16;17.60;55.60
72604;DHT22;60645;56.968;24.196;2023-03-24T09:03:43;17.90;53.20
72604;DHT22;60645;56.968;24.196;2023-03-24T09:06:12;18.00;53.60
72604;DHT22;60645;56.968;24.196;2023-03-24T09:08:39;18.60;52.20
72604;DHT22;60645;56.968;24.196;2023-03-24T09:11:10;18.30;51.70
72604;DHT22;60645;56.968;24.196;2023-03-24T09:13:39;17.50;53.70
72604;DHT22;60645;56.968;24.196;2023-03-24T09:16:05;17.00;54.70
72604;DHT22;60645;56.968;24.196;2023-03-24T09:18:32;16.70;56.00
72604;DHT22;60645;56.968;24.196;2023-03-24T09:20:59;16.30;56.60
72604;DHT22;60645;56.968;24.196;2023-03-24T09:23:26;15.90;57.80
72604;DHT22;60645;56.968;24.196;2023-03-24T09:25:54;15.40;59.30
72604;DHT22;60645;56.968;24.196;2023-03-24T09:28:21;14.80;62.10
72604;DHT22;60645;56.968;24.196;2023-03-24T09:30:48;16.30;59.00
72604;DHT22;60645;56.968;24.196;2023-03-24T09:33:15;17.70;54.80
72604;DHT22;60645;56.968;24.196;2023-03-24T09:35:42;18.20;51.90
72604;DHT22;60645;56.968;24.196;2023-03-24T09:38:09;17.80;54.30
72604;DHT22;60645;56.968;24.196;2023-03-24T09:40:38;18.30;52.00
72604;DHT22;60645;56.968;24.196;2023-03-24T09:43:07;18.40;51.70
72604;DHT22;60645;56.968;24.196;2023-03-24T09:45:38;17.00;54.10
72604;DHT22;60645;56.968;24.196;2023-03-24T09:48:11;15.90;57.20
72604;DHT22;60645;56.968;24.196;2023-03-24T09:50:48;15.10;59.60
72604;DHT22;60645;56.968;24.196;2023-03-24T09:55:47;14.80;61.20
72604;DHT22;60645;56.968;24.196;2023-03-24T09:58:14;14.90;60.80
72604;DHT22;60645;56.968;24.196;2023-03-24T10:00:42;14.80;60.90
72604;DHT22;60645;56.968;24.196;2023-03-24T10:03:21;15.30;60.70
72604;DHT22;60645;56.968;24.196;2023-03-24T10:06:04;15.40;59.50
72604;DHT22;60645;56.968;24.196;2023-03-24T10:08:36;15.80;58.50
72604;DHT22;60645;56.968;24.196;2023-03-24T10:11:15;16.40;57.50
72604;DHT22;60645;56.968;24.196;2023-03-24T10:21:26;16.30;56.50
72604;DHT22;60645;56.968;24.196;2023-03-24T10:26:38;16.70;55.60
72604;DHT22;60645;56.968;24.196;2023-03-24T10:31:36;17.80;54.20
72604;DHT22;60645;56.968;24.196;2023-03-24T10:34:04;18.10;53.30
72604;DHT22;60645;56.968;24.196;2023-03-24T10:36:31;18.30;52.40
72604;DHT22;60645;56.968;24.196;2023-03-24T10:38:59;17.30;54.40
72604;DHT22;60645;56.968;24.196;2023-03-24T10:41:43;16.90;56.00
72604;DHT22;60645;56.968;24.196;2023-03-24T10:44:11;17.30;54.50
72604;DHT22;60645;56.968;24.196;2023-03-24T10:46:42;17.10;55.10
72604;DHT22;60645;56.968;24.196;2023-03-24T10:51:37;16.60;56.10
72604;DHT22;60645;56.968;24.196;2023-03-24T10:54:14;17.20;55.80
72604;DHT22;60645;56.968;24.196;2023-03-24T10:56:42;18.20;53.00
72604;DHT22;60645;56.968;24.196;2023-03-24T10:59:17;19.30;50.20
72604;DHT22;60645;56.968;24.196;2023-03-24T11:01:45;19.40;50.10
72604;DHT22;60645;56.968;24.196;2023-03-24T11:04:14;18.00;52.80
72604;DHT22;60645;56.968;24.196;2023-03-24T11:06:53;17.90;54.40
72604;DHT22;60645;56.968;24.196;2023-03-24T11:09:22;17.80;53.80
72604;DHT22;60645;56.968;24.196;2023-03-24T11:11:49;18.10;53.70
72604;DHT22;60645;56.968;24.196;2023-03-24T11:14:22;17.90;53.80
72604;DHT22;60645;56.968;24.196;2023-03-24T11:16:51;17.10;55.20
72604;DHT22;60645;56.968;24.196;2023-03-24T11:19:20;16.00;58.30
72604;DHT22;60645;56.968;24.196;2023-03-24T11:21:48;15.70;59.20
72604;DHT22;60645;56.968;24.196;2023-03-24T11:24:17;15.90;58.90
72604;DHT22;60645;56.968;24.196;2023-03-24T11:26:49;16.40;58.00
72604;DHT22;60645;56.968;24.196;2023-03-24T11:29:20;17.20;56.10
72604;DHT22;60645;56.968;24.196;2023-03-24T11:32:35;16.40;57.30
72604;DHT22;60645;56.968;24.196;2023-03-24T11:34:37;16.50;58.20
72604;DHT22;60645;56.968;24.196;2023-03-24T11:37:11;17.30;56.30
72604;DHT22;60645;56.968;24.196;2023-03-24T11:39:39;17.60;55.60
72604;DHT22;60645;56.968;24.196;2023-03-24T11:52:35;15.50;60.00
72604;DHT22;60645;56.968;24.196;2023-03-24T11:55:05;14.80;62.40
72604;DHT22;60645;56.968;24.196;2023-03-24T11:57:48;14.80;62.80
72604;DHT22;60645;56.968;24.196;2023-03-24T12:05:36;16.30;57.90
72604;DHT22;60645;56.968;24.196;2023-03-24T12:08:16;16.10;58.80
72604;DHT22;60645;56.968;24.196;2023-03-24T12:23:59;16.20;58.60
72604;DHT22;60645;56.968;24.196;2023-03-24T12:26:32;16.00;59.20
72604;DHT22;60645;56.968;24.196;2023-03-24T12:42:15;16.90;57.10
72604;DHT22;60645;56.968;24.196;2023-03-24T12:50:01;14.30;65.00
72604;DHT22;60645;56.968;24.196;2023-03-24T12:55:41;13.90;66.80
72604;DHT22;60645;56.968;24.196;2023-03-24T12:58:10;13.80;67.10
72604;DHT22;60645;56.968;24.196;2023-03-24T13:00:41;14.00;66.40
72604;DHT22;60645;56.968;24.196;2023-03-24T13:03:10;13.80;66.20
72604;DHT22;60645;56.968;24.196;2023-03-24T13:05:48;13.60;67.00
72604;DHT22;60645;56.968;24.196;2023-03-24T13:08:23;13.40;67.80
72604;DHT22;60645;56.968;24.196;2023-03-24T13:10:56;13.40;68.10
72604;DHT22;60645;56.968;24.196;2023-03-24T13:13:27;13.20;68.80
72604;DHT22;60645;56.968;24.196;2023-03-24T13:15:56;13.20;69.10
72604;DHT22;60645;56.968;24.196;2023-03-24T13:18:31;13.10;69.70
72604;DHT22;60645;56.968;24.196;2023-03-24T13:21:05;13.00;70.10
72604;DHT22;60645;56.968;24.196;2023-03-24T13:23:44;13.00;70.50
72604;DHT22;60645;56.968;24.196;2023-03-24T13:31:27;12.90;70.50
72604;DHT22;60645;56.968;24.196;2023-03-24T13:33:57;12.80;71.00
72604;DHT22;60645;56.968;24.196;2023-03-24T13:36:45;12.80;72.00
72604;DHT22;60645;56.968;24.196;2023-03-24T13:39:14;12.70;73.10
72604;DHT22;60645;56.968;24.196;2023-03-24T13:41:46;12.70;72.70
72604;DHT22;60645;56.968;24.196;2023-03-24T13:44:16;12.80;71.90
72604;DHT22;60645;56.968;24.196;2023-03-24T13:46:46;12.90;72.20
72604;DHT22;60645;56.968;24.196;2023-03-24T13:49:24;12.70;73.00
72604;DHT22;60645;56.968;24.196;2023-03-24T13:51:51;12.60;74.50
72604;DHT22;60645;56.968;24.196;2023-03-24T13:54:19;12.40;76.10
72604;DHT22;60645;56.968;24.196;2023-03-24T13:59:22;11.60;78.60
72604;DHT22;60645;56.968;24.196;2023-03-24T14:15:28;11.00;83.60
72604;DHT22;60645;56.968;24.196;2023-03-24T14:17:55;10.80;84.80
72604;DHT22;60645;56.968;24.196;2023-03-24T14:20:38;10.60;85.90
72604;DHT22;60645;56.968;24.196;2023-03-24T14:23:15;10.40;87.20
72604;DHT22;60645;56.968;24.196;2023-03-24T14:25:51;10.30;87.40
72604;DHT22;60645;56.968;24.196;2023-03-24T14:33:24;10.20;88.90
72604;DHT22;60645;56.968;24.196;2023-03-24T14:35:56;10.20;88.80
72604;DHT22;60645;56.968;24.196;2023-03-24T14:38:24;10.10;88.90
72604;DHT22;60645;56.968;24.196;2023-03-24T14:40:56;10.20;88.90
72604;DHT22;60645;56.968;24.196;2023-03-24T14:45:54;10.10;90.10
72604;DHT22;60645;56.968;24.196;2023-03-24T14:50:51;10.10;91.40
72604;DHT22;60645;56.968;24.196;2023-03-24T14:53:19;10.10;91.60
72604;DHT22;60645;56.968;24.196;2023-03-24T14:55:46;10.00;92.60
72604;DHT22;60645;56.968;24.196;2023-03-24T14:58:21;10.00;92.80
72604;DHT22;60645;56.968;24.196;2023-03-24T15:00:50;9.90;93.70
72604;DHT22;60645;56.968;24.196;2023-03-24T15:03:52;9.80;94.20
72604;DHT22;60645;56.968;24.196;2023-03-24T15:06:21;9.70;94.70
72604;DHT22;60645;56.968;24.196;2023-03-24T15:08:53;9.70;94.30
72604;DHT22;60645;56.968;24.196;2023-03-24T15:11:24;9.80;94.80
72604;DHT22;60645;56.968;24.196;2023-03-24T15:13:52;9.70;94.50
72604;DHT22;60645;56.968;24.196;2023-03-24T15:16:21;9.70;95.40
72604;DHT22;60645;56.968;24.196;2023-03-24T15:18:51;9.60;95.70
72604;DHT22;60645;56.968;24.196;2023-03-24T15:21:35;9.50;95.70
72604;DHT22;60645;56.968;24.196;2023-03-24T15:26:48;9.50;96.10
72604;DHT22;60645;56.968;24.196;2023-03-24T15:29:15;9.50;96.10
72604;DHT22;60645;56.968;24.196;2023-03-24T15:31:42;9.50;96.30
72604;DHT22;60645;56.968;24.196;2023-03-24T15:34:28;9.50;96.60
72604;DHT22;60645;56.968;24.196;2023-03-24T15:36:56;9.50;97.00
72604;DHT22;60645;56.968;24.196;2023-03-24T15:39:25;9.40;96.90
72604;DHT22;60645;56.968;24.196;2023-03-24T15:41:52;9.40;96.80
72604;DHT22;60645;56.968;24.196;2023-03-24T15:44:28;9.50;96.80
72604;DHT22;60645;56.968;24.196;2023-03-24T15:46:57;9.50;97.40
72604;DHT22;60645;56.968;24.196;2023-03-24T15:49:26;9.40;97.30
72604;DHT22;60645;56.968;24.196;2023-03-24T15:54:39;9.40;97.50
72604;DHT22;60645;56.968;24.196;2023-03-24T15:57:14;9.40;97.80
72604;DHT22;60645;56.968;24.196;2023-03-24T16:00:04;9.30;97.70
72604;DHT22;60645;56.968;24.196;2023-03-24T16:02:41;9.50;97.70
72604;DHT22;60645;56.968;24.196;2023-03-24T16:05:13;9.40;97.80
72604;DHT22;60645;56.968;24.196;2023-03-24T16:07:43;9.40;98.00
72604;DHT22;60645;56.968;24.196;2023-03-24T16:12:52;9.30;98.40
72604;DHT22;60645;56.968;24.196;2023-03-24T16:15:19;9.30;98.80
72604;DHT22;60645;56.968;24.196;2023-03-24T16:17:46;9.40;98.80
72604;DHT22;60645;56.968;24.196;2023-03-24T16:20:18;9.40;98.90
72604;DHT22;60645;56.968;24.196;2023-03-24T16:22:45;9.50;98.80
72604;DHT22;60645;56.968;24.196;2023-03-24T16:25:12;9.50;98.70
72604;DHT22;60645;56.968;24.196;2023-03-24T16:27:39;9.50;98.90
72604;DHT22;60645;56.968;24.196;2023-03-24T16:30:24;9.40;98.80
72604;DHT22;60645;56.968;24.196;2023-03-24T16:32:52;9.50;98.80
72604;DHT22;60645;56.968;24.196;2023-03-24T16:35:19;9.40;98.70
72604;DHT22;60645;56.968;24.196;2023-03-24T16:37:45;9.50;98.90
72604;DHT22;60645;56.968;24.196;2023-03-24T16:40:18;9.50;98.90
72604;DHT22;60645;56.968;24.196;2023-03-24T16:42:45;9.60;99.00
72604;DHT22;60645;56.968;24.196;2023-03-24T16:45:12;9.60;99.00
72604;DHT22;60645;56.968;24.196;2023-03-24T16:47:39;9.60;98.90
72604;DHT22;60645;56.968;24.196;2023-03-24T16:52:48;9.70;98.90
72604;DHT22;60645;56.968;24.196;2023-03-24T16:55:15;9.70;98.90
72604;DHT22;60645;56.968;24.196;2023-03-24T16:57:42;9.70;99.10
72604;DHT22;60645;56.968;24.196;2023-03-24T17:00:09;9.70;99.10
72604;DHT22;60645;56.968;24.196;2023-03-24T17:02:37;9.90;98.80
72604;DHT22;60645;56.968;24.196;2023-03-24T17:05:14;9.90;98.60
72604;DHT22;60645;56.968;24.196;2023-03-24T17:07:43;9.80;98.80
72604;DHT22;60645;56.968;24.196;2023-03-24T17:10:10;9.80;98.90
72604;DHT22;60645;56.968;24.196;2023-03-24T17:12:37;9.90;98.70
72604;DHT22;60645;56.968;24.196;2023-03-24T17:15:04;9.90;98.90
72604;DHT22;60645;56.968;24.196;2023-03-24T17:17:31;9.90;99.00
72604;DHT22;60645;56.968;24.196;2023-03-24T17:19:58;9.90;99.20
72604;DHT22;60645;56.968;24.196;2023-03-24T17:22:25;9.90;99.30
72604;DHT22;60645;56.968;24.196;2023-03-24T17:24:52;9.80;99.60
72604;DHT22;60645;56.968;24.196;2023-03-24T17:27:23;9.90;99.60
72604;DHT22;60645;56.968;24.196;2023-03-24T17:29:50;9.90;99.60
72604;DHT22;60645;56.968;24.196;2023-03-24T17:32:17;9.90;99.70
72604;DHT22;60645;56.968;24.196;2023-03-24T17:34:47;10.00;99.80
72604;DHT22;60645;56.968;24.196;2023-03-24T17:37:14;9.90;99.90
72604;DHT22;60645;56.968;24.196;2023-03-24T17:39:41;10.00;99.90
72604;DHT22;60645;56.968;24.196;2023-03-24T17:42:08;10.00;99.90
72604;DHT22;60645;56.968;24.196;2023-03-24T17:44:35;10.00;99.90
72604;DHT22;60645;56.968;24.196;2023-03-24T17:47:02;10.00;99.90
72604;DHT22;60645;56.968;24.196;2023-03-24T17:49:29;10.00;99.90
72604;DHT22;60645;56.968;24.196;2023-03-24T17:51:55;10.00;99.90
72604;DHT22;60645;56.968;24.196;2023-03-24T17:54:22;10.00;99.90
72604;DHT22;60645;56.968;24.196;2023-03-24T17:56:50;10.10;99.90
72604;DHT22;60645;56.968;24.196;2023-03-24T17:59:17;10.10;99.90
72604;DHT22;60645;56.968;24.196;2023-03-24T18:01:44;10.10;99.90
72604;DHT22;60645;56.968;24.196;2023-03-24T18:04:12;10.20;99.90
72604;DHT22;60645;56.968;24.196;2023-03-24T18:06:39;10.20;99.90
72604;DHT22;60645;56.968;24.196;2023-03-24T18:09:07;10.30;99.90
72604;DHT22;60645;56.968;24.196;2023-03-24T18:11:34;10.30;99.90
72604;DHT22;60645;56.968;24.196;2023-03-24T18:14:01;10.40;99.90
72604;DHT22;60645;56.968;24.196;2023-03-24T18:16:28;10.40;99.90
72604;DHT22;60645;56.968;24.196;2023-03-24T18:19:00;10.40;99.90
72604;DHT22;60645;56.968;24.196;2023-03-24T18:21:27;10.50;99.90